TAI534 MSLP-MHLM
Flight info
| Callsign | TAI534 |
|---|---|
| Flight time | 0h 43m |
| Altitude | 21000 |
| Route | NAGEL2W NAGEL DCT KELBI DCT SAP |
| Aircraft | A320/M-SDE3FGHIRWY/LB1 |
Departure
| Time | 2026-04-17 18:22 |
|---|---|
| Airport | El Salvador International Airport Saint Óscar Arnulfo Romero y Galdámez (MSLP) |
Arrival
| Time | 2026-04-17 19:05 |
|---|---|
| Airport | Ramón Villeda Morales International Airport (MHLM) |
| Time | Latitude | Longitude | Altitude | Speed | Heading |
|---|---|---|---|---|---|
| 2026-04-17 18:02 | 13.44360 | -89.05853 | 93 ft | 0 kts | 340° |
| 2026-04-17 18:13 | 13.44357 | -89.05852 | 93 ft | 3 kts | 340° |
| 2026-04-17 18:13 | 13.44333 | -89.05844 | 92 ft | 4 kts | 353° |
| 2026-04-17 18:14 | 13.44307 | -89.05846 | 91 ft | 4 kts | 21° |
| 2026-04-17 18:14 | 13.44291 | -89.05854 | 91 ft | 1 kts | 35° |
| 2026-04-17 18:14 | 13.44289 | -89.05856 | 90 ft | 0 kts | 35° |
| 2026-04-17 18:16 | 13.44292 | -89.05853 | 91 ft | 4 kts | 38° |
| 2026-04-17 18:17 | 13.44284 | -89.05822 | 90 ft | 9 kts | 99° |
| 2026-04-17 18:17 | 13.44363 | -89.05583 | 94 ft | 22 kts | 67° |
| 2026-04-17 18:17 | 13.44417 | -89.05433 | 96 ft | 22 kts | 89° |
| 2026-04-17 18:18 | 13.44365 | -89.05361 | 96 ft | 8 kts | 101° |
| 2026-04-17 18:18 | 13.44381 | -89.05294 | 98 ft | 13 kts | 69° |
| 2026-04-17 18:18 | 13.44416 | -89.05198 | 98 ft | 16 kts | 70° |
| 2026-04-17 18:18 | 13.44458 | -89.05082 | 99 ft | 19 kts | 70° |
| 2026-04-17 18:19 | 13.44507 | -89.04947 | 101 ft | 22 kts | 70° |
| 2026-04-17 18:19 | 13.44556 | -89.04809 | 102 ft | 24 kts | 70° |
| 2026-04-17 18:19 | 13.44616 | -89.04643 | 104 ft | 25 kts | 70° |
| 2026-04-17 18:19 | 13.44675 | -89.04478 | 105 ft | 24 kts | 69° |
| 2026-04-17 18:20 | 13.44729 | -89.04326 | 108 ft | 23 kts | 70° |
| 2026-04-17 18:20 | 13.44663 | -89.04228 | 108 ft | 20 kts | 163° |
| 2026-04-17 18:20 | 13.44572 | -89.04244 | 108 ft | 10 kts | 256° |
| 2026-04-17 18:20 | 13.44550 | -89.04309 | 107 ft | 9 kts | 250° |
| 2026-04-17 18:21 | 13.44506 | -89.04433 | 105 ft | 43 kts | 249° |
| 2026-04-17 18:21 | 13.44316 | -89.04960 | 101 ft | 112 kts | 250° |
| 2026-04-17 18:21 | 13.43983 | -89.05890 | 103 ft | 162 kts | 250° |
| 2026-04-17 18:21 | 13.43575 | -89.07033 | 538 ft | 177 kts | 250° |
| 2026-04-17 18:22 | 13.43133 | -89.08272 | 1041 ft | 194 kts | 250° |
| 2026-04-17 18:22 | 13.42645 | -89.09638 | 1516 ft | 215 kts | 250° |
| 2026-04-17 18:22 | 13.42100 | -89.11160 | 1982 ft | 239 kts | 250° |
| 2026-04-17 18:22 | 13.41552 | -89.12845 | 2634 ft | 255 kts | 256° |
| 2026-04-17 18:23 | 13.41254 | -89.14655 | 3573 ft | 260 kts | 265° |
| 2026-04-17 18:23 | 13.41257 | -89.16519 | 4507 ft | 263 kts | 275° |
| 2026-04-17 18:23 | 13.41568 | -89.18380 | 5403 ft | 267 kts | 285° |
| 2026-04-17 18:23 | 13.42187 | -89.20191 | 6306 ft | 271 kts | 295° |
| 2026-04-17 18:24 | 13.43118 | -89.21883 | 7179 ft | 275 kts | 304° |
| 2026-04-17 18:24 | 13.44246 | -89.23484 | 8037 ft | 278 kts | 306° |
| 2026-04-17 18:24 | 13.45391 | -89.25101 | 8882 ft | 282 kts | 306° |
| 2026-04-17 18:24 | 13.46699 | -89.26614 | 9697 ft | 286 kts | 318° |
| 2026-04-17 18:25 | 13.48310 | -89.27824 | 10503 ft | 290 kts | 330° |
| 2026-04-17 18:25 | 13.50164 | -89.28675 | 11289 ft | 294 kts | 342° |
| 2026-04-17 18:25 | 13.52175 | -89.29102 | 12049 ft | 298 kts | 355° |
| 2026-04-17 18:25 | 13.54261 | -89.29064 | 12789 ft | 302 kts | 8° |
| 2026-04-17 18:26 | 13.56310 | -89.28535 | 13507 ft | 307 kts | 21° |
| 2026-04-17 18:26 | 13.58314 | -89.27653 | 13914 ft | 323 kts | 23° |
| 2026-04-17 18:26 | 13.60450 | -89.26712 | 14077 ft | 345 kts | 22° |
| 2026-04-17 18:26 | 13.62695 | -89.25734 | 14535 ft | 355 kts | 22° |
| 2026-04-17 18:27 | 13.64993 | -89.24739 | 15146 ft | 360 kts | 22° |
| 2026-04-17 18:27 | 13.67314 | -89.23738 | 15783 ft | 364 kts | 22° |
| 2026-04-17 18:27 | 13.69659 | -89.22722 | 16433 ft | 367 kts | 22° |
| 2026-04-17 18:27 | 13.72021 | -89.21695 | 17066 ft | 370 kts | 23° |
| 2026-04-17 18:28 | 13.74309 | -89.20451 | 17656 ft | 374 kts | 33° |
| 2026-04-17 18:28 | 13.76335 | -89.18760 | 18260 ft | 377 kts | 45° |
| 2026-04-17 18:28 | 13.78066 | -89.16728 | 18848 ft | 380 kts | 50° |
| 2026-04-17 18:28 | 13.79785 | -89.14645 | 19421 ft | 383 kts | 49° |
| 2026-04-17 18:29 | 13.81502 | -89.12580 | 19966 ft | 386 kts | 49° |
| 2026-04-17 18:29 | 13.83259 | -89.10476 | 20496 ft | 389 kts | 49° |
| 2026-04-17 18:29 | 13.85057 | -89.08326 | 20901 ft | 393 kts | 49° |
| 2026-04-17 18:29 | 13.86811 | -89.06227 | 20990 ft | 389 kts | 49° |
| 2026-04-17 18:30 | 13.88581 | -89.04105 | 21009 ft | 383 kts | 49° |
| 2026-04-17 18:30 | 13.90285 | -89.02059 | 21009 ft | 380 kts | 49° |
| 2026-04-17 18:30 | 13.92000 | -88.99996 | 21009 ft | 379 kts | 49° |
| 2026-04-17 18:30 | 13.93713 | -88.97933 | 21009 ft | 379 kts | 49° |
| 2026-04-17 18:31 | 13.95426 | -88.95871 | 21008 ft | 379 kts | 49° |
| 2026-04-17 18:31 | 13.97139 | -88.93809 | 21008 ft | 379 kts | 49° |
| 2026-04-17 18:31 | 13.98854 | -88.91750 | 21008 ft | 379 kts | 49° |
| 2026-04-17 18:31 | 14.00591 | -88.89695 | 21010 ft | 380 kts | 48° |
| 2026-04-17 18:32 | 14.02356 | -88.87678 | 21008 ft | 380 kts | 47° |
| 2026-04-17 18:32 | 14.04143 | -88.85673 | 21008 ft | 380 kts | 47° |
| 2026-04-17 18:32 | 14.05934 | -88.83676 | 21009 ft | 380 kts | 47° |
| 2026-04-17 18:32 | 14.07726 | -88.81675 | 21011 ft | 380 kts | 47° |
| 2026-04-17 18:33 | 14.09515 | -88.79672 | 21014 ft | 379 kts | 47° |
| 2026-04-17 18:33 | 14.10715 | -88.78322 | 21016 ft | 379 kts | 47° |
| 2026-04-17 18:33 | 14.12495 | -88.76308 | 21015 ft | 379 kts | 47° |
| 2026-04-17 18:33 | 14.14266 | -88.74296 | 21010 ft | 380 kts | 47° |
| 2026-04-17 18:34 | 14.16039 | -88.72279 | 20998 ft | 380 kts | 47° |
| 2026-04-17 18:34 | 14.17822 | -88.70256 | 20995 ft | 381 kts | 47° |
| 2026-04-17 18:34 | 14.19600 | -88.68242 | 21003 ft | 381 kts | 47° |
| 2026-04-17 18:34 | 14.21360 | -88.66249 | 21007 ft | 381 kts | 47° |
| 2026-04-17 18:35 | 14.23143 | -88.64228 | 21002 ft | 381 kts | 47° |
| 2026-04-17 18:35 | 14.24945 | -88.62185 | 20999 ft | 381 kts | 47° |
| 2026-04-17 18:35 | 14.26861 | -88.60297 | 20994 ft | 381 kts | 38° |
| 2026-04-17 18:35 | 14.28967 | -88.58705 | 20992 ft | 381 kts | 36° |
| 2026-04-17 18:36 | 14.31142 | -88.57081 | 20993 ft | 381 kts | 36° |
| 2026-04-17 18:36 | 14.33267 | -88.55491 | 20991 ft | 382 kts | 36° |
| 2026-04-17 18:36 | 14.35413 | -88.53882 | 20989 ft | 382 kts | 36° |
| 2026-04-17 18:36 | 14.37587 | -88.52248 | 20987 ft | 382 kts | 36° |
| 2026-04-17 18:37 | 14.39712 | -88.50650 | 20989 ft | 383 kts | 36° |
| 2026-04-17 18:37 | 14.41866 | -88.49032 | 20993 ft | 383 kts | 36° |
| 2026-04-17 18:37 | 14.44049 | -88.47393 | 20995 ft | 383 kts | 36° |
| 2026-04-17 18:37 | 14.46206 | -88.45777 | 21001 ft | 383 kts | 36° |
| 2026-04-17 18:38 | 14.48359 | -88.44162 | 21003 ft | 383 kts | 36° |
| 2026-04-17 18:38 | 14.50510 | -88.42548 | 21004 ft | 383 kts | 36° |
| 2026-04-17 18:38 | 14.52668 | -88.40929 | 21000 ft | 383 kts | 36° |
| 2026-04-17 18:38 | 14.54825 | -88.39311 | 20997 ft | 384 kts | 36° |
| 2026-04-17 18:39 | 14.56982 | -88.37691 | 21001 ft | 384 kts | 36° |
| 2026-04-17 18:39 | 14.59142 | -88.36069 | 21003 ft | 384 kts | 36° |
| 2026-04-17 18:39 | 14.61297 | -88.34446 | 21003 ft | 384 kts | 36° |
| 2026-04-17 18:39 | 14.63458 | -88.32819 | 20998 ft | 385 kts | 36° |
| 2026-04-17 18:40 | 14.65619 | -88.31190 | 20998 ft | 385 kts | 36° |
| 2026-04-17 18:40 | 14.67781 | -88.29561 | 21008 ft | 385 kts | 36° |
| 2026-04-17 18:40 | 14.69916 | -88.27949 | 21017 ft | 385 kts | 36° |
| 2026-04-17 18:40 | 14.72066 | -88.26327 | 21025 ft | 384 kts | 36° |
| 2026-04-17 18:41 | 14.74233 | -88.24694 | 21029 ft | 384 kts | 36° |
| 2026-04-17 18:41 | 14.76388 | -88.23070 | 21035 ft | 383 kts | 36° |
| 2026-04-17 18:41 | 14.78538 | -88.21453 | 21036 ft | 382 kts | 36° |
| 2026-04-17 18:41 | 14.80685 | -88.19840 | 21037 ft | 381 kts | 36° |
| 2026-04-17 18:42 | 14.82825 | -88.18227 | 21034 ft | 381 kts | 36° |
| 2026-04-17 18:42 | 14.84968 | -88.16644 | 20878 ft | 375 kts | 34° |
| 2026-04-17 18:42 | 14.87124 | -88.15192 | 20627 ft | 366 kts | 32° |
| 2026-04-17 18:42 | 14.89279 | -88.13838 | 20375 ft | 358 kts | 30° |
| 2026-04-17 18:43 | 14.91405 | -88.12541 | 20125 ft | 351 kts | 30° |
| 2026-04-17 18:43 | 14.93502 | -88.11267 | 19880 ft | 349 kts | 30° |
| 2026-04-17 18:43 | 14.95583 | -88.09992 | 19625 ft | 346 kts | 30° |
| 2026-04-17 18:43 | 14.97630 | -88.08723 | 19372 ft | 341 kts | 31° |
| 2026-04-17 18:44 | 14.99654 | -88.07463 | 19124 ft | 339 kts | 31° |
| 2026-04-17 18:44 | 15.01668 | -88.06214 | 18873 ft | 336 kts | 31° |
| 2026-04-17 18:44 | 15.03666 | -88.04978 | 18623 ft | 333 kts | 31° |
| 2026-04-17 18:44 | 15.05650 | -88.03753 | 18373 ft | 332 kts | 30° |
| 2026-04-17 18:45 | 15.07629 | -88.02531 | 18122 ft | 330 kts | 30° |
| 2026-04-17 18:45 | 15.09595 | -88.01319 | 17876 ft | 328 kts | 30° |
| 2026-04-17 18:45 | 15.11555 | -88.00107 | 17621 ft | 327 kts | 31° |
| 2026-04-17 18:45 | 15.13507 | -87.98896 | 17370 ft | 326 kts | 31° |
| 2026-04-17 18:46 | 15.15449 | -87.97694 | 17119 ft | 325 kts | 30° |
| 2026-04-17 18:46 | 15.17382 | -87.96500 | 16866 ft | 323 kts | 30° |
| 2026-04-17 18:46 | 15.19302 | -87.95314 | 16618 ft | 319 kts | 30° |
| 2026-04-17 18:46 | 15.21191 | -87.94146 | 16374 ft | 314 kts | 31° |
| 2026-04-17 18:47 | 15.23055 | -87.92989 | 16118 ft | 310 kts | 31° |
| 2026-04-17 18:47 | 15.24872 | -87.91839 | 15979 ft | 302 kts | 35° |
| 2026-04-17 18:47 | 15.26312 | -87.90344 | 15990 ft | 288 kts | 57° |
| 2026-04-17 18:47 | 15.27095 | -87.88495 | 15993 ft | 276 kts | 78° |
| 2026-04-17 18:48 | 15.27193 | -87.86536 | 15995 ft | 272 kts | 98° |
| 2026-04-17 18:48 | 15.26634 | -87.84677 | 15996 ft | 271 kts | 119° |
| 2026-04-17 18:48 | 15.25488 | -87.83136 | 15996 ft | 272 kts | 140° |
| 2026-04-17 18:48 | 15.23894 | -87.82106 | 15995 ft | 272 kts | 160° |
| 2026-04-17 18:49 | 15.22051 | -87.81710 | 15995 ft | 271 kts | 180° |
| 2026-04-17 18:49 | 15.20198 | -87.81993 | 15996 ft | 270 kts | 200° |
| 2026-04-17 18:49 | 15.18514 | -87.82799 | 16002 ft | 270 kts | 210° |
| 2026-04-17 18:49 | 15.17070 | -87.84013 | 15993 ft | 268 kts | 232° |
| 2026-04-17 18:50 | 15.16158 | -87.85679 | 15996 ft | 267 kts | 252° |
| 2026-04-17 18:50 | 15.15828 | -87.87562 | 15996 ft | 267 kts | 270° |
| 2026-04-17 18:50 | 15.16110 | -87.89451 | 15995 ft | 267 kts | 290° |
| 2026-04-17 18:50 | 15.16989 | -87.91136 | 15995 ft | 267 kts | 309° |
| 2026-04-17 18:51 | 15.18373 | -87.92405 | 15996 ft | 268 kts | 329° |
| 2026-04-17 18:51 | 15.20095 | -87.93113 | 15995 ft | 268 kts | 349° |
| 2026-04-17 18:51 | 15.21954 | -87.93167 | 15995 ft | 269 kts | 9° |
| 2026-04-17 18:51 | 15.23728 | -87.92567 | 15998 ft | 269 kts | 26° |
| 2026-04-17 18:52 | 15.25398 | -87.91560 | 15816 ft | 288 kts | 35° |
| 2026-04-17 18:52 | 15.26993 | -87.90288 | 15474 ft | 290 kts | 40° |
| 2026-04-17 18:52 | 15.28526 | -87.88912 | 15110 ft | 292 kts | 41° |
| 2026-04-17 18:52 | 15.30046 | -87.87508 | 14757 ft | 293 kts | 41° |
| 2026-04-17 18:53 | 15.31574 | -87.86107 | 14395 ft | 295 kts | 41° |
| 2026-04-17 18:53 | 15.33127 | -87.84709 | 14031 ft | 296 kts | 40° |
| 2026-04-17 18:53 | 15.34696 | -87.83323 | 13665 ft | 297 kts | 40° |
| 2026-04-17 18:53 | 15.36279 | -87.81944 | 13290 ft | 298 kts | 39° |
| 2026-04-17 18:54 | 15.37875 | -87.80564 | 12916 ft | 299 kts | 39° |
| 2026-04-17 18:54 | 15.39471 | -87.79186 | 12539 ft | 299 kts | 39° |
| 2026-04-17 18:54 | 15.41078 | -87.77800 | 12150 ft | 300 kts | 39° |
| 2026-04-17 18:54 | 15.42684 | -87.76415 | 11764 ft | 301 kts | 39° |
| 2026-04-17 18:55 | 15.44294 | -87.75026 | 11368 ft | 301 kts | 39° |
| 2026-04-17 18:55 | 15.45906 | -87.73632 | 10965 ft | 302 kts | 39° |
| 2026-04-17 18:55 | 15.47513 | -87.72239 | 10637 ft | 299 kts | 39° |
| 2026-04-17 18:55 | 15.49078 | -87.70883 | 10555 ft | 288 kts | 39° |
| 2026-04-17 18:56 | 15.50588 | -87.69577 | 10445 ft | 278 kts | 39° |
| 2026-04-17 18:56 | 15.52107 | -87.68434 | 10320 ft | 261 kts | 26° |
| 2026-04-17 18:56 | 15.53765 | -87.67869 | 10165 ft | 245 kts | 8° |
| 2026-04-17 18:56 | 15.55462 | -87.67850 | 9664 ft | 245 kts | 354° |
| 2026-04-17 18:57 | 15.57154 | -87.68002 | 9219 ft | 243 kts | 354° |
| 2026-04-17 18:57 | 15.58828 | -87.68148 | 8800 ft | 241 kts | 354° |
| 2026-04-17 18:57 | 15.60492 | -87.68290 | 8390 ft | 238 kts | 355° |
| 2026-04-17 18:57 | 15.62137 | -87.68429 | 7989 ft | 236 kts | 355° |
| 2026-04-17 18:58 | 15.63762 | -87.68565 | 7579 ft | 233 kts | 354° |
| 2026-04-17 18:58 | 15.65276 | -87.68987 | 7176 ft | 228 kts | 330° |
| 2026-04-17 18:58 | 15.66454 | -87.70094 | 6573 ft | 234 kts | 301° |
| 2026-04-17 18:58 | 15.66966 | -87.71717 | 5936 ft | 239 kts | 271° |
| 2026-04-17 18:59 | 15.66617 | -87.73365 | 5348 ft | 240 kts | 240° |
| 2026-04-17 18:59 | 15.65545 | -87.74632 | 4993 ft | 230 kts | 220° |
| 2026-04-17 18:59 | 15.64345 | -87.75676 | 4684 ft | 222 kts | 220° |
| 2026-04-17 18:59 | 15.63176 | -87.76696 | 4392 ft | 216 kts | 220° |
| 2026-04-17 19:00 | 15.62044 | -87.77686 | 4107 ft | 210 kts | 220° |
| 2026-04-17 19:00 | 15.60947 | -87.78646 | 3848 ft | 201 kts | 220° |
| 2026-04-17 19:00 | 15.59907 | -87.79556 | 3571 ft | 191 kts | 220° |
| 2026-04-17 19:00 | 15.58913 | -87.80426 | 3321 ft | 182 kts | 220° |
| 2026-04-17 19:01 | 15.57971 | -87.81249 | 3086 ft | 173 kts | 220° |
| 2026-04-17 19:01 | 15.57082 | -87.82027 | 2886 ft | 162 kts | 220° |
| 2026-04-17 19:01 | 15.56225 | -87.82776 | 2659 ft | 158 kts | 220° |
| 2026-04-17 19:01 | 15.55414 | -87.83486 | 2463 ft | 148 kts | 220° |
| 2026-04-17 19:02 | 15.54640 | -87.84163 | 2268 ft | 144 kts | 221° |
| 2026-04-17 19:02 | 15.53874 | -87.84832 | 2078 ft | 147 kts | 220° |
| 2026-04-17 19:02 | 15.53062 | -87.85543 | 1869 ft | 155 kts | 220° |
| 2026-04-17 19:02 | 15.52246 | -87.86255 | 1669 ft | 151 kts | 220° |
| 2026-04-17 19:03 | 15.51451 | -87.86950 | 1461 ft | 149 kts | 220° |
| 2026-04-17 19:03 | 15.50660 | -87.87641 | 1268 ft | 149 kts | 220° |
| 2026-04-17 19:03 | 15.49872 | -87.88330 | 1073 ft | 147 kts | 220° |
| 2026-04-17 19:03 | 15.49094 | -87.89009 | 873 ft | 145 kts | 220° |
| 2026-04-17 19:04 | 15.48330 | -87.89677 | 678 ft | 143 kts | 220° |
| 2026-04-17 19:04 | 15.47578 | -87.90333 | 493 ft | 141 kts | 220° |
| 2026-04-17 19:04 | 15.46821 | -87.90994 | 310 ft | 144 kts | 220° |
| 2026-04-17 19:04 | 15.46061 | -87.91658 | 115 ft | 141 kts | 220° |
| 2026-04-17 19:05 | 15.45390 | -87.92245 | 94 ft | 102 kts | 220° |
| 2026-04-17 19:05 | 15.44955 | -87.92625 | 91 ft | 65 kts | 220° |
| 2026-04-17 19:05 | 15.44687 | -87.92860 | 94 ft | 37 kts | 220° |
| 2026-04-17 19:05 | 15.44554 | -87.92977 | 94 ft | 20 kts | 220° |
| 2026-04-17 19:06 | 15.44540 | -87.93078 | 98 ft | 16 kts | 303° |
| 2026-04-17 19:06 | 15.44643 | -87.93064 | 94 ft | 22 kts | 66° |
| 2026-04-17 19:06 | 15.44775 | -87.92951 | 93 ft | 23 kts | 48° |
| 2026-04-17 19:06 | 15.44884 | -87.92852 | 93 ft | 20 kts | 38° |
| 2026-04-17 19:07 | 15.45003 | -87.92745 | 93 ft | 24 kts | 42° |
| 2026-04-17 19:07 | 15.45138 | -87.92627 | 92 ft | 27 kts | 40° |
| 2026-04-17 19:07 | 15.45263 | -87.92531 | 93 ft | 19 kts | 17° |
| 2026-04-17 19:07 | 15.45339 | -87.92594 | 92 ft | 15 kts | 310° |
| 2026-04-17 19:08 | 15.45405 | -87.92676 | 95 ft | 8 kts | 309° |
| 2026-04-17 19:08 | 15.45410 | -87.92682 | 92 ft | 0 kts | 310° |
| 2026-04-17 19:10 | 15.45412 | -87.92685 | 92 ft | 9 kts | 297° |
| 2026-04-17 19:10 | 15.45439 | -87.92678 | 93 ft | 4 kts | 337° |
| 2026-04-17 19:10 | 15.45450 | -87.92704 | 92 ft | 3 kts | 329° |
| 2026-04-17 19:11 | 15.45485 | -87.92690 | 92 ft | 3 kts | 41° |
| 2026-04-17 19:11 | 15.45515 | -87.92688 | 92 ft | 6 kts | 315° |
| 2026-04-17 19:11 | 15.45517 | -87.92690 | 92 ft | 0 kts | 313° |